createdAt,value
2023-04-26T00:02:28.185Z,10.37
2023-04-26T00:04:58.840Z,10.23
2023-04-26T00:07:28.835Z,10.24
2023-04-26T00:09:57.844Z,10.38
2023-04-26T00:12:26.011Z,10.40
2023-04-26T00:14:54.080Z,10.49
2023-04-26T00:17:23.793Z,10.42
2023-04-26T00:19:52.198Z,10.50
2023-04-26T00:22:20.336Z,10.53
2023-04-26T00:24:48.930Z,10.41
2023-04-26T00:27:17.356Z,10.19
2023-04-26T00:29:45.305Z,10.14
2023-04-26T00:32:13.415Z,10.37
2023-04-26T00:34:41.516Z,10.51
2023-04-26T00:37:09.538Z,10.48
2023-04-26T00:39:37.567Z,10.53
2023-04-26T00:42:05.918Z,10.55
2023-04-26T00:44:33.838Z,10.48
2023-04-26T00:47:01.972Z,10.55
2023-04-26T00:49:30.138Z,10.48
2023-04-26T00:51:58.739Z,10.27
2023-04-26T00:54:26.899Z,10.06
2023-04-26T00:56:55.080Z,10.09
2023-04-26T00:59:23.491Z,10.12
2023-04-26T01:01:51.551Z,10.21
2023-04-26T01:04:19.770Z,10.23
2023-04-26T01:06:47.988Z,10.28
2023-04-26T01:09:16.507Z,10.40
2023-04-26T01:11:44.710Z,10.35
2023-04-26T01:14:12.838Z,10.40
2023-04-26T01:16:41.006Z,10.46
2023-04-26T01:19:13.621Z,10.53
2023-04-26T01:21:41.912Z,10.54
2023-04-26T01:24:11.755Z,10.50
2023-04-26T01:26:46.738Z,10.54
2023-04-26T01:29:22.216Z,10.61
2023-04-26T01:31:50.277Z,10.66
2023-04-26T01:34:18.425Z,10.71
2023-04-26T01:36:47.507Z,10.72
2023-04-26T01:39:16.023Z,10.78
2023-04-26T01:41:44.108Z,10.72
2023-04-26T01:44:12.268Z,10.74
2023-04-26T01:46:40.662Z,10.84
2023-04-26T01:49:08.918Z,10.89
2023-04-26T01:51:37.153Z,10.92
2023-04-26T01:54:07.934Z,10.92
2023-04-26T01:56:36.026Z,10.89
2023-04-26T01:59:04.090Z,10.87
2023-04-26T02:01:32.733Z,10.79
2023-04-26T02:04:00.833Z,10.82
2023-04-26T02:06:28.996Z,10.88
2023-04-26T02:08:57.617Z,10.90
2023-04-26T02:11:27.164Z,10.85
2023-04-26T02:13:55.458Z,10.84
2023-04-26T02:16:23.710Z,10.83
2023-04-26T02:18:53.792Z,10.85
2023-04-26T02:21:23.057Z,10.84
2023-04-26T02:23:51.099Z,10.93
2023-04-26T02:26:19.196Z,10.92
2023-04-26T02:28:47.259Z,10.89
2023-04-26T02:31:15.357Z,10.92
2023-04-26T02:33:43.921Z,10.77
2023-04-26T02:36:13.426Z,10.83
2023-04-26T02:38:41.903Z,10.89
2023-04-26T02:41:10.385Z,10.84
2023-04-26T02:43:38.598Z,10.80
2023-04-26T02:46:09.783Z,10.78
2023-04-26T02:48:37.905Z,10.83
2023-04-26T02:51:06.453Z,10.82
2023-04-26T02:53:34.722Z,10.80
2023-04-26T02:56:03.246Z,10.70
2023-04-26T02:58:31.272Z,10.63
2023-04-26T03:01:01.430Z,10.67
2023-04-26T03:03:31.343Z,10.60
2023-04-26T03:05:59.694Z,10.65
2023-04-26T03:08:27.793Z,10.46
2023-04-26T03:10:55.932Z,10.53
2023-04-26T03:13:24.542Z,10.38
2023-04-26T03:15:53.916Z,10.48
2023-04-26T03:18:22.964Z,10.56
2023-04-26T03:20:52.423Z,10.48
2023-04-26T03:23:24.502Z,10.42
2023-04-26T03:25:53.455Z,10.37
2023-04-26T03:28:21.843Z,10.53
2023-04-26T03:30:52.742Z,10.65
2023-04-26T03:33:21.525Z,10.41
2023-04-26T03:35:49.678Z,10.63
2023-04-26T03:38:17.856Z,10.75
2023-04-26T03:40:46.365Z,10.46
2023-04-26T03:43:14.569Z,10.42
2023-04-26T03:45:42.588Z,10.71
2023-04-26T03:48:10.969Z,10.82
2023-04-26T03:50:39.685Z,10.88
2023-04-26T03:53:07.890Z,10.76
2023-04-26T03:55:36.968Z,10.81
2023-04-26T03:58:08.160Z,10.85
2023-04-26T04:00:41.255Z,10.99
2023-04-26T04:03:09.769Z,10.80
2023-04-26T04:05:38.000Z,10.59
2023-04-26T04:08:06.335Z,10.51
2023-04-26T04:10:34.532Z,10.49
2023-04-26T04:13:02.590Z,10.50
2023-04-26T04:15:32.004Z,10.58
2023-04-26T04:18:00.550Z,10.60
2023-04-26T04:20:28.659Z,10.70
2023-04-26T04:22:59.053Z,10.72
2023-04-26T04:25:27.227Z,10.76
2023-04-26T04:27:58.475Z,10.76
2023-04-26T04:30:26.636Z,10.65
2023-04-26T04:32:58.671Z,10.62
2023-04-26T04:35:29.235Z,10.65
2023-04-26T04:37:57.816Z,10.63
2023-04-26T04:40:27.401Z,10.58
2023-04-26T04:42:56.213Z,10.69
2023-04-26T04:45:27.252Z,10.63
2023-04-26T04:47:57.140Z,10.66
2023-04-26T04:50:25.302Z,10.79
2023-04-26T04:52:53.612Z,10.73
2023-04-26T04:55:22.194Z,10.80
2023-04-26T04:57:50.364Z,10.92
2023-04-26T05:00:19.406Z,10.99
2023-04-26T05:03:04.916Z,11.10
2023-04-26T05:05:33.431Z,11.07
2023-04-26T05:08:01.810Z,10.96
2023-04-26T05:10:30.801Z,10.94
2023-04-26T05:12:58.860Z,10.94
2023-04-26T05:15:27.347Z,10.82
2023-04-26T05:17:56.138Z,10.68
2023-04-26T05:20:26.256Z,10.70
2023-04-26T05:22:54.456Z,10.84
2023-04-26T05:25:23.072Z,10.81
2023-04-26T05:27:57.737Z,10.71
2023-04-26T05:30:36.974Z,10.45
2023-04-26T05:33:20.248Z,10.50
2023-04-26T05:35:51.032Z,10.39
2023-04-26T05:38:19.008Z,10.38
2023-04-26T05:40:48.506Z,10.23
2023-04-26T05:43:16.873Z,9.79
2023-04-26T05:45:54.627Z,9.42
2023-04-26T05:48:24.175Z,9.46
2023-04-26T05:50:52.624Z,9.49
2023-04-26T05:53:20.979Z,9.73
2023-04-26T05:55:49.294Z,9.84
2023-04-26T05:58:17.568Z,10.09
2023-04-26T06:00:46.555Z,10.33
2023-04-26T06:03:14.916Z,10.38
2023-04-26T06:05:43.463Z,10.59
2023-04-26T06:08:12.222Z,10.76
2023-04-26T06:10:40.404Z,10.93
2023-04-26T06:13:08.490Z,11.06
2023-04-26T06:15:37.958Z,11.21
2023-04-26T06:18:07.297Z,11.46
2023-04-26T06:20:36.167Z,11.79
2023-04-26T06:23:07.660Z,11.97
2023-04-26T06:25:37.230Z,12.10
2023-04-26T06:28:05.734Z,12.18
2023-04-26T06:30:33.865Z,12.36
2023-04-26T06:33:02.083Z,12.46
2023-04-26T06:35:31.951Z,12.33
2023-04-26T06:38:00.536Z,12.45
2023-04-26T06:40:28.887Z,12.53
2023-04-26T06:42:57.291Z,12.71
2023-04-26T06:45:37.447Z,12.88
2023-04-26T06:48:06.906Z,13.25
2023-04-26T06:50:39.486Z,13.71
2023-04-26T06:53:08.427Z,13.84
2023-04-26T06:55:36.633Z,13.29
2023-04-26T06:58:04.623Z,12.85
2023-04-26T07:00:32.529Z,12.68
2023-04-26T07:03:00.588Z,12.58
2023-04-26T07:05:28.731Z,12.80
2023-04-26T07:07:56.645Z,13.36
2023-04-26T07:10:26.205Z,13.48
2023-04-26T07:12:54.423Z,12.76
2023-04-26T07:15:22.701Z,12.02
2023-04-26T07:17:50.675Z,11.44
2023-04-26T07:20:21.255Z,11.40
2023-04-26T07:22:49.262Z,11.84
2023-04-26T07:25:18.134Z,11.77
2023-04-26T07:27:46.423Z,10.92
2023-04-26T07:30:14.597Z,10.16
2023-04-26T07:32:42.756Z,10.09
2023-04-26T07:35:16.356Z,10.55
2023-04-26T07:37:44.859Z,10.83
2023-04-26T07:40:14.116Z,10.99
2023-04-26T07:42:42.127Z,11.00
2023-04-26T07:45:11.418Z,11.11
2023-04-26T07:47:39.505Z,11.18
2023-04-26T07:50:09.186Z,10.93
2023-04-26T07:52:37.166Z,10.19
2023-04-26T07:55:06.122Z,9.55
2023-04-26T07:57:34.342Z,9.66
2023-04-26T08:00:02.303Z,9.89
2023-04-26T08:02:45.243Z,10.19
2023-04-26T08:05:14.517Z,10.32
2023-04-26T08:07:43.003Z,10.35
2023-04-26T08:10:11.473Z,10.21
2023-04-26T08:12:39.413Z,10.32
2023-04-26T08:15:08.365Z,10.52
2023-04-26T08:17:36.462Z,10.72
2023-04-26T08:20:06.229Z,10.71
2023-04-26T08:22:34.278Z,10.76
2023-04-26T08:25:02.350Z,10.91
2023-04-26T08:27:32.002Z,10.37
2023-04-26T08:30:00.536Z,9.48
2023-04-26T08:32:28.553Z,9.35
2023-04-26T08:34:56.713Z,9.84
2023-04-26T08:37:24.795Z,10.20
2023-04-26T08:39:52.774Z,10.53
2023-04-26T08:42:20.906Z,10.80
2023-04-26T08:44:49.270Z,11.06
2023-04-26T08:47:24.336Z,11.35
2023-04-26T08:49:59.707Z,11.66
2023-04-26T08:52:28.766Z,11.54
2023-04-26T08:55:00.776Z,11.19
2023-04-26T08:57:28.921Z,11.33
2023-04-26T08:59:57.972Z,12.25
2023-04-26T09:02:26.149Z,13.13
2023-04-26T09:04:54.517Z,13.50
2023-04-26T09:07:31.405Z,13.03
2023-04-26T09:09:59.981Z,12.47
2023-04-26T09:12:28.074Z,11.97
2023-04-26T09:14:56.740Z,11.42
2023-04-26T09:17:52.032Z,10.88
2023-04-26T09:20:21.941Z,10.69
2023-04-26T09:22:52.038Z,11.51
2023-04-26T09:25:31.107Z,11.83
2023-04-26T09:27:59.864Z,11.53
2023-04-26T09:30:28.475Z,11.44
2023-04-26T09:33:04.099Z,11.47
2023-04-26T09:35:32.072Z,11.54
2023-04-26T09:38:14.958Z,11.65
2023-04-26T09:40:44.403Z,11.76
2023-04-26T09:43:17.740Z,11.59
2023-04-26T09:45:53.585Z,11.74
2023-04-26T09:48:23.496Z,11.76
2023-04-26T09:50:54.449Z,11.61
2023-04-26T09:53:42.955Z,11.67
2023-04-26T09:56:16.020Z,11.93
2023-04-26T09:58:44.017Z,12.10
2023-04-26T10:01:12.333Z,12.29
2023-04-26T10:03:41.890Z,12.44
2023-04-26T10:06:10.368Z,12.19
2023-04-26T10:08:38.339Z,11.95
2023-04-26T10:11:13.172Z,11.65
2023-04-26T10:13:42.107Z,11.40
2023-04-26T10:16:10.475Z,10.94
2023-04-26T10:18:38.848Z,10.49
2023-04-26T10:21:13.061Z,10.18
2023-04-26T10:23:41.037Z,9.90
2023-04-26T10:26:54.877Z,9.73
2023-04-26T10:29:26.442Z,9.71
2023-04-26T10:32:06.982Z,9.97
2023-04-26T10:34:37.257Z,10.22
2023-04-26T10:37:14.920Z,10.46
2023-04-26T10:39:44.259Z,10.52
2023-04-26T10:42:25.837Z,10.61
2023-04-26T10:44:58.827Z,10.58
2023-04-26T10:47:36.449Z,10.48
2023-04-26T10:50:10.094Z,10.57
2023-04-26T10:53:05.765Z,10.60
2023-04-26T10:55:43.164Z,10.56
2023-04-26T10:58:29.198Z,10.43
2023-04-26T11:01:18.471Z,10.29
2023-04-26T11:03:59.305Z,10.10
2023-04-26T11:06:29.867Z,9.88
2023-04-26T11:08:58.332Z,9.68
2023-04-26T11:11:27.226Z,9.63
2023-04-26T11:13:55.431Z,9.62
2023-04-26T11:16:26.864Z,9.57
2023-04-26T11:18:55.314Z,9.53
2023-04-26T11:21:23.357Z,9.54
2023-04-26T11:23:55.248Z,9.50
2023-04-26T11:26:24.738Z,9.64
2023-04-26T11:28:53.034Z,9.77
2023-04-26T11:31:21.444Z,9.95
2023-04-26T11:33:50.925Z,10.23
2023-04-26T11:36:19.930Z,10.48
2023-04-26T11:38:47.933Z,10.62
2023-04-26T11:41:16.095Z,10.56
2023-04-26T11:43:44.037Z,10.53
2023-04-26T11:46:12.167Z,10.30
2023-04-26T11:48:40.967Z,10.14
2023-04-26T11:51:08.975Z,10.05
2023-04-26T11:53:40.853Z,9.99
2023-04-26T11:56:22.023Z,10.15
2023-04-26T11:58:52.175Z,10.43
2023-04-26T12:01:25.403Z,10.65
2023-04-26T12:03:55.642Z,10.77
2023-04-26T12:06:35.826Z,10.79
2023-04-26T12:09:06.855Z,10.57
2023-04-26T12:11:35.175Z,10.38
2023-04-26T12:14:03.209Z,10.23
2023-04-26T12:16:31.485Z,10.02
2023-04-26T12:18:59.507Z,9.80
2023-04-26T12:21:30.337Z,9.60
2023-04-26T12:23:58.910Z,9.45
2023-04-26T12:26:47.333Z,9.35
2023-04-26T12:29:15.336Z,9.32
2023-04-26T12:31:43.327Z,9.35
2023-04-26T12:34:11.342Z,9.42
2023-04-26T12:36:41.556Z,9.54
2023-04-26T12:39:14.599Z,9.76
2023-04-26T12:41:43.118Z,9.99
2023-04-26T12:44:11.591Z,10.26
2023-04-26T12:46:40.053Z,10.46
2023-04-26T12:49:08.269Z,10.60
2023-04-26T12:51:36.400Z,10.61
2023-04-26T12:54:04.700Z,10.61
2023-04-26T12:56:33.925Z,10.60
2023-04-26T12:59:02.078Z,10.56
2023-04-26T13:01:30.223Z,10.50
2023-04-26T13:04:01.030Z,10.47
2023-04-26T13:06:29.356Z,10.53
2023-04-26T13:08:57.319Z,10.57
2023-04-26T13:11:25.559Z,10.67
2023-04-26T13:13:53.572Z,10.74
2023-04-26T13:16:21.580Z,10.79
2023-04-26T13:18:49.663Z,10.84
2023-04-26T13:21:17.661Z,10.78
2023-04-26T13:23:47.416Z,10.71
2023-04-26T13:26:20.097Z,10.61
2023-04-26T13:28:48.387Z,10.55
2023-04-26T13:31:17.583Z,10.38
2023-04-26T13:33:49.334Z,10.20
2023-04-26T13:36:17.395Z,10.05
2023-04-26T13:38:45.631Z,9.92
2023-04-26T13:41:14.519Z,9.80
2023-04-26T13:43:42.662Z,9.74
2023-04-26T13:46:11.325Z,9.65
2023-04-26T13:48:39.451Z,9.70
2023-04-26T13:51:07.619Z,9.73
2023-04-26T13:53:35.691Z,9.83
2023-04-26T13:56:04.482Z,9.97
2023-04-26T13:58:32.548Z,10.10
2023-04-26T14:01:00.540Z,10.22
2023-04-26T14:03:28.930Z,10.21
2023-04-26T14:05:57.164Z,10.15
2023-04-26T14:08:25.095Z,10.08
2023-04-26T14:10:53.345Z,10.02
2023-04-26T14:13:22.102Z,9.97
2023-04-26T14:15:50.083Z,9.88
2023-04-26T14:18:18.418Z,9.88
2023-04-26T14:20:46.979Z,9.77
2023-04-26T14:23:15.078Z,9.70
2023-04-26T14:25:43.170Z,9.72
2023-04-26T14:28:11.373Z,9.79
2023-04-26T14:30:39.510Z,9.77
2023-04-26T14:33:07.714Z,9.78
2023-04-26T14:35:36.273Z,9.80
2023-04-26T14:38:04.212Z,9.73
2023-04-26T14:40:32.515Z,9.73
2023-04-26T14:43:00.660Z,9.77
2023-04-26T14:45:42.860Z,9.73
2023-04-26T14:48:12.700Z,9.69
2023-04-26T14:50:41.114Z,9.69
2023-04-26T14:53:10.085Z,9.71
2023-04-26T14:55:38.202Z,9.80
2023-04-26T14:58:06.418Z,9.82
2023-04-26T15:00:34.487Z,9.85
2023-04-26T15:03:03.064Z,9.81
2023-04-26T15:05:31.854Z,9.78
2023-04-26T15:08:00.146Z,9.85
2023-04-26T15:10:28.200Z,9.86
2023-04-26T15:12:56.577Z,9.78
2023-04-26T15:15:24.629Z,9.84
2023-04-26T15:17:53.066Z,9.91
2023-04-26T15:20:21.688Z,10.01
2023-04-26T15:22:49.743Z,10.07
2023-04-26T15:25:17.906Z,10.12
2023-04-26T15:27:47.079Z,10.20
2023-04-26T15:30:15.225Z,10.22
2023-04-26T15:32:43.444Z,10.29
2023-04-26T15:35:13.802Z,10.32
2023-04-26T15:37:42.247Z,10.32
2023-04-26T15:40:13.870Z,10.23
2023-04-26T15:42:42.058Z,10.20
2023-04-26T15:45:10.992Z,10.16
2023-04-26T15:47:39.107Z,10.05
2023-04-26T15:50:08.100Z,10.01
2023-04-26T15:52:38.934Z,9.97
2023-04-26T15:55:07.681Z,9.89
2023-04-26T15:57:35.843Z,9.77
2023-04-26T16:00:08.467Z,9.66
2023-04-26T16:02:37.315Z,9.51
2023-04-26T16:05:08.372Z,9.43
2023-04-26T16:07:38.953Z,9.37
2023-04-26T16:10:09.268Z,9.28
2023-04-26T16:12:39.673Z,9.23
2023-04-26T16:15:09.544Z,9.25
2023-04-26T16:17:38.082Z,9.19
2023-04-26T16:20:08.134Z,9.17
2023-04-26T16:22:36.671Z,9.08
2023-04-26T16:25:07.111Z,9.04
2023-04-26T16:27:35.936Z,8.96
2023-04-26T16:30:04.378Z,8.91
2023-04-26T16:32:32.554Z,8.81
2023-04-26T16:35:00.927Z,8.72
2023-04-26T16:37:29.047Z,8.68
2023-04-26T16:39:57.341Z,8.60
2023-04-26T16:42:26.421Z,8.53
2023-04-26T16:44:55.089Z,8.51
2023-04-26T16:47:23.234Z,8.49
2023-04-26T16:49:51.535Z,8.46
2023-04-26T16:52:19.692Z,8.44
2023-04-26T16:54:47.741Z,8.41
2023-04-26T16:57:15.758Z,8.39
2023-04-26T16:59:43.770Z,8.37
2023-04-26T17:02:13.668Z,8.33
2023-04-26T17:04:42.140Z,8.30
2023-04-26T17:07:11.194Z,8.26
2023-04-26T17:09:39.733Z,8.21
2023-04-26T17:12:08.080Z,8.13
2023-04-26T17:14:36.189Z,8.08
2023-04-26T17:17:04.200Z,8.04
2023-04-26T17:19:32.485Z,8.01
2023-04-26T17:22:00.555Z,7.97
2023-04-26T17:24:28.759Z,7.92
2023-04-26T17:26:56.829Z,7.86
2023-04-26T17:29:24.970Z,7.81
2023-04-26T17:31:53.202Z,7.76
2023-04-26T17:34:21.502Z,7.72
2023-04-26T17:36:49.580Z,7.68
2023-04-26T17:39:17.550Z,7.64
2023-04-26T17:41:45.780Z,7.60
2023-04-26T17:44:13.818Z,7.56
2023-04-26T17:46:41.752Z,7.53
2023-04-26T17:49:12.726Z,7.49
2023-04-26T17:51:41.297Z,7.44
2023-04-26T17:54:12.991Z,7.39
2023-04-26T17:56:41.660Z,7.35
2023-04-26T17:59:10.021Z,7.33
2023-04-26T18:01:38.174Z,7.29
2023-04-26T18:04:06.560Z,7.25
2023-04-26T18:06:34.663Z,7.21
2023-04-26T18:09:02.707Z,7.16
2023-04-26T18:11:31.837Z,7.11
2023-04-26T18:13:59.906Z,7.08
2023-04-26T18:16:28.636Z,7.02
2023-04-26T18:18:56.618Z,6.99
2023-04-26T18:21:24.648Z,6.97
2023-04-26T18:23:52.649Z,6.94
2023-04-26T18:26:22.478Z,6.92
2023-04-26T18:28:50.820Z,6.90
2023-04-26T18:31:21.124Z,6.89
2023-04-26T18:33:49.475Z,6.86
2023-04-26T18:36:18.198Z,6.84
2023-04-26T18:38:46.292Z,6.82
2023-04-26T18:41:14.348Z,6.80
2023-04-26T18:43:42.330Z,6.77
2023-04-26T18:46:10.516Z,6.75
2023-04-26T18:48:38.596Z,6.73
2023-04-26T18:51:06.806Z,6.71
2023-04-26T18:53:34.890Z,6.70
2023-04-26T18:56:02.928Z,6.69
2023-04-26T18:58:31.316Z,6.67
2023-04-26T19:00:59.904Z,6.65
2023-04-26T19:03:28.949Z,6.63
2023-04-26T19:05:57.114Z,6.61
2023-04-26T19:08:26.548Z,6.59
2023-04-26T19:10:54.933Z,6.58
2023-04-26T19:13:23.394Z,6.57
2023-04-26T19:15:51.617Z,6.56
2023-04-26T19:18:19.923Z,6.54
2023-04-26T19:20:48.980Z,6.54
2023-04-26T19:23:17.195Z,6.53
2023-04-26T19:25:45.498Z,6.52
2023-04-26T19:28:13.714Z,6.52
2023-04-26T19:30:41.722Z,6.49
2023-04-26T19:33:09.888Z,6.47
2023-04-26T19:35:37.965Z,6.46
2023-04-26T19:38:07.093Z,6.44
2023-04-26T19:40:35.058Z,6.43
2023-04-26T19:43:03.685Z,6.41
2023-04-26T19:45:32.010Z,6.40
2023-04-26T19:48:00.513Z,6.37
2023-04-26T19:50:28.883Z,6.35
2023-04-26T19:52:56.901Z,6.32
2023-04-26T19:55:26.686Z,6.29
2023-04-26T19:57:57.198Z,6.21
2023-04-26T20:00:25.711Z,6.15
2023-04-26T20:02:54.016Z,6.10
2023-04-26T20:05:22.641Z,6.08
2023-04-26T20:07:51.450Z,6.06
2023-04-26T20:10:21.807Z,6.08
2023-04-26T20:12:50.249Z,6.07
2023-04-26T20:15:18.393Z,6.07
2023-04-26T20:17:46.620Z,6.08
2023-04-26T20:20:15.165Z,6.10
2023-04-26T20:22:43.264Z,6.10
2023-04-26T20:25:11.314Z,6.10
2023-04-26T20:27:39.259Z,6.11
2023-04-26T20:30:08.273Z,6.11
2023-04-26T20:32:36.318Z,6.11
2023-04-26T20:35:05.247Z,6.12
2023-04-26T20:37:33.340Z,6.12
2023-04-26T20:40:02.041Z,6.11
2023-04-26T20:42:30.054Z,6.09
2023-04-26T20:45:00.506Z,6.07
2023-04-26T20:47:30.310Z,6.06
2023-04-26T20:49:58.499Z,6.05
2023-04-26T20:52:26.881Z,6.05
2023-04-26T20:54:57.285Z,6.04
2023-04-26T20:57:26.043Z,6.02
2023-04-26T20:59:54.416Z,6.02
2023-04-26T21:02:22.659Z,6.00
2023-04-26T21:04:50.905Z,6.00
2023-04-26T21:07:18.938Z,5.98
2023-04-26T21:09:47.076Z,5.97
2023-04-26T21:12:15.164Z,5.96
2023-04-26T21:14:45.906Z,5.91
2023-04-26T21:17:15.115Z,5.84
2023-04-26T21:19:43.683Z,5.78
2023-04-26T21:22:11.955Z,5.74
2023-04-26T21:24:39.904Z,5.71
2023-04-26T21:27:07.896Z,5.69
2023-04-26T21:29:35.994Z,5.62
2023-04-26T21:32:04.244Z,5.56
2023-04-26T21:34:32.271Z,5.52
2023-04-26T21:37:00.544Z,5.49
2023-04-26T21:39:28.512Z,5.49
2023-04-26T21:41:56.472Z,5.50
2023-04-26T21:44:24.491Z,5.53
2023-04-26T21:46:52.628Z,5.55
2023-04-26T21:49:20.978Z,5.55
2023-04-26T21:51:49.099Z,5.54
2023-04-26T21:54:17.147Z,5.60
2023-04-26T21:56:45.155Z,6.41
2023-04-26T21:59:14.671Z,7.61
2023-04-26T22:01:42.734Z,8.43
2023-04-26T22:04:10.851Z,9.01
2023-04-26T22:06:39.025Z,9.36
2023-04-26T22:09:09.792Z,9.06
2023-04-26T22:11:38.046Z,8.37
2023-04-26T22:14:06.371Z,7.85
2023-04-26T22:16:34.391Z,7.46
2023-04-26T22:19:02.551Z,7.17
2023-04-26T22:21:30.540Z,6.94
2023-04-26T22:23:58.661Z,6.75
2023-04-26T22:26:26.861Z,6.57
2023-04-26T22:28:54.886Z,6.43
2023-04-26T22:31:23.076Z,6.30
2023-04-26T22:33:51.284Z,6.19
2023-04-26T22:36:19.348Z,6.10
2023-04-26T22:38:47.350Z,6.01
2023-04-26T22:41:15.471Z,5.95
2023-04-26T22:43:44.708Z,5.90
2023-04-26T22:46:13.237Z,5.85
2023-04-26T22:48:41.280Z,5.79
2023-04-26T22:51:09.282Z,5.74
2023-04-26T22:53:37.536Z,5.70
2023-04-26T22:56:06.147Z,5.67
2023-04-26T22:58:34.282Z,5.65
2023-04-26T23:01:02.388Z,5.62
2023-04-26T23:03:30.933Z,5.59
2023-04-26T23:05:59.104Z,5.57
2023-04-26T23:08:27.185Z,5.55
2023-04-26T23:10:55.128Z,5.53
2023-04-26T23:13:25.611Z,5.50
2023-04-26T23:15:53.649Z,5.48
2023-04-26T23:18:21.814Z,5.46
2023-04-26T23:20:49.818Z,5.44
2023-04-26T23:23:17.957Z,5.42
2023-04-26T23:25:46.081Z,5.40
2023-04-26T23:28:14.148Z,5.38
2023-04-26T23:30:42.172Z,5.36
2023-04-26T23:33:10.207Z,5.35
2023-04-26T23:35:42.353Z,5.34
2023-04-26T23:38:10.315Z,5.33
2023-04-26T23:40:38.331Z,5.29
2023-04-26T23:43:06.450Z,5.28
2023-04-26T23:45:34.499Z,5.27
2023-04-26T23:48:02.438Z,5.26
2023-04-26T23:50:30.793Z,5.25
2023-04-26T23:52:58.788Z,5.31
2023-04-26T23:55:26.824Z,6.06
2023-04-26T23:57:54.852Z,7.06
